createdAt,value
2023-03-13T00:00:47.103Z,12.50
2023-03-13T00:02:50.228Z,12.50
2023-03-13T00:04:52.819Z,12.50
2023-03-13T00:06:54.484Z,12.50
2023-03-13T00:08:56.206Z,12.50
2023-03-13T00:10:59.496Z,12.50
2023-03-13T00:13:01.306Z,12.50
2023-03-13T00:15:03.302Z,12.60
2023-03-13T00:17:05.200Z,12.60
2023-03-13T00:19:08.661Z,12.60
2023-03-13T00:21:10.485Z,12.50
2023-03-13T00:23:14.202Z,12.50
2023-03-13T00:25:16.005Z,12.50
2023-03-13T00:27:17.705Z,12.60
2023-03-13T00:29:19.697Z,12.50
2023-03-13T00:31:27.589Z,12.50
2023-03-13T00:33:31.833Z,12.40
2023-03-13T00:35:34.790Z,12.40
2023-03-13T00:37:39.127Z,12.40
2023-03-13T00:39:40.817Z,12.40
2023-03-13T00:41:43.805Z,12.40
2023-03-13T00:43:47.366Z,12.30
2023-03-13T00:45:49.144Z,12.40
2023-03-13T00:47:50.830Z,12.40
2023-03-13T00:49:52.621Z,12.40
2023-03-13T00:51:54.304Z,12.40
2023-03-13T00:53:57.319Z,12.40
2023-03-13T00:56:05.520Z,12.30
2023-03-13T00:58:07.196Z,12.30
2023-03-13T01:00:09.551Z,12.30
2023-03-13T01:02:11.525Z,12.30
2023-03-13T01:04:13.379Z,12.30
2023-03-13T01:06:19.365Z,12.30
2023-03-13T01:08:21.384Z,12.30
2023-03-13T01:10:24.297Z,12.20
2023-03-13T01:12:25.972Z,12.20
2023-03-13T01:14:30.161Z,12.20
2023-03-13T01:16:37.457Z,12.20
2023-03-13T01:18:41.842Z,12.10
2023-03-13T01:20:47.317Z,12.10
2023-03-13T01:22:51.958Z,12.10
2023-03-13T01:24:56.995Z,12.10
2023-03-13T01:27:01.098Z,12.00
2023-03-13T01:29:02.998Z,12.00
2023-03-13T01:31:32.145Z,12.00
2023-03-13T01:33:34.406Z,12.00
2023-03-13T01:35:36.380Z,11.90
2023-03-13T01:37:38.118Z,11.90
2023-03-13T01:39:39.911Z,11.90
2023-03-13T01:41:42.085Z,11.90
2023-03-13T01:43:45.454Z,11.80
2023-03-13T01:46:13.512Z,11.80
2023-03-13T01:49:04.801Z,11.80
2023-03-13T01:51:19.473Z,11.80
2023-03-13T01:53:21.610Z,11.70
2023-03-13T01:55:23.485Z,11.70
2023-03-13T01:57:37.432Z,11.60
2023-03-13T01:59:47.637Z,11.70
2023-03-13T02:01:53.157Z,11.60
2023-03-13T02:03:57.101Z,11.60
2023-03-13T02:06:01.140Z,11.60
2023-03-13T02:08:18.924Z,11.60
2023-03-13T02:10:22.257Z,11.60
2023-03-13T02:12:38.725Z,11.60
2023-03-13T02:14:44.551Z,11.60
2023-03-13T02:16:48.776Z,11.60
2023-03-13T02:18:51.072Z,11.60
2023-03-13T02:20:59.931Z,11.70
2023-03-13T02:23:10.262Z,11.70
2023-03-13T02:25:25.286Z,11.70
2023-03-13T02:27:32.647Z,11.60
2023-03-13T02:29:36.825Z,11.70
2023-03-13T02:31:41.199Z,11.70
2023-03-13T02:33:44.694Z,11.70
2023-03-13T02:35:50.015Z,11.70
2023-03-13T02:38:00.640Z,11.70
2023-03-13T02:40:12.515Z,11.70
2023-03-13T02:42:17.509Z,11.80
2023-03-13T02:44:20.591Z,11.80
2023-03-13T02:46:24.652Z,11.80
2023-03-13T02:48:38.030Z,11.80
2023-03-13T02:50:39.846Z,11.80
2023-03-13T02:52:45.903Z,11.90
2023-03-13T02:54:51.548Z,11.90
2023-03-13T02:57:00.627Z,11.90
2023-03-13T02:59:07.762Z,12.00
2023-03-13T03:01:13.463Z,12.00
2023-03-13T03:03:16.767Z,12.00
2023-03-13T03:05:18.621Z,12.00
2023-03-13T03:07:20.352Z,12.00
2023-03-13T03:09:25.523Z,12.00
2023-03-13T03:11:33.633Z,12.00
2023-03-13T03:13:39.947Z,12.00
2023-03-13T03:15:41.695Z,12.00
2023-03-13T03:17:44.730Z,12.00
2023-03-13T03:19:46.520Z,12.00
2023-03-13T03:21:49.546Z,12.10
2023-03-13T03:23:53.579Z,12.10
2023-03-13T03:25:55.280Z,12.10
2023-03-13T03:27:56.973Z,12.10
2023-03-13T03:30:01.090Z,12.10
2023-03-13T03:32:03.200Z,12.10
2023-03-13T03:34:05.855Z,12.20
2023-03-13T03:36:13.601Z,12.20
2023-03-13T03:38:19.950Z,12.20
2023-03-13T03:40:24.788Z,12.20
2023-03-13T03:42:26.490Z,12.20
2023-03-13T03:44:31.710Z,12.30
2023-03-13T03:46:34.959Z,12.20
2023-03-13T03:48:37.660Z,12.30
2023-03-13T03:50:41.466Z,12.30
2023-03-13T03:52:43.268Z,12.30
2023-03-13T03:54:45.098Z,12.30
2023-03-13T03:57:07.712Z,12.30
2023-03-13T03:59:11.015Z,12.40
2023-03-13T04:01:21.865Z,12.40
2023-03-13T04:03:24.037Z,12.40
2023-03-13T04:05:27.765Z,12.40
2023-03-13T04:07:29.635Z,12.50
2023-03-13T04:09:33.847Z,12.50
2023-03-13T04:11:39.632Z,12.50
2023-03-13T04:13:43.397Z,12.50
2023-03-13T04:15:45.337Z,12.60
2023-03-13T04:17:47.540Z,12.60
2023-03-13T04:19:50.164Z,12.60
2023-03-13T04:21:51.922Z,12.70
2023-03-13T04:23:54.582Z,12.70
2023-03-13T04:25:56.713Z,12.70
2023-03-13T04:27:58.395Z,12.70
2023-03-13T04:30:05.522Z,12.70
2023-03-13T04:32:07.324Z,12.70
2023-03-13T04:34:09.038Z,12.70
2023-03-13T04:36:25.228Z,12.70
2023-03-13T04:38:47.282Z,12.80
2023-03-13T04:41:05.950Z,12.80
2023-03-13T04:43:28.177Z,12.80
2023-03-13T04:45:56.255Z,12.80
2023-03-13T04:48:24.149Z,12.80
2023-03-13T04:50:36.505Z,12.90
2023-03-13T04:52:49.525Z,12.90
2023-03-13T04:55:00.406Z,12.90
2023-03-13T04:57:28.346Z,13.00
2023-03-13T04:59:38.481Z,13.00
2023-03-13T05:02:02.272Z,12.90
2023-03-13T05:04:19.229Z,13.00
2023-03-13T05:06:29.954Z,13.00
2023-03-13T05:08:50.093Z,13.00
2023-03-13T05:11:19.160Z,13.00
2023-03-13T05:13:33.025Z,13.10
2023-03-13T05:15:58.023Z,13.10
2023-03-13T05:18:29.336Z,13.10
2023-03-13T05:21:00.348Z,13.10
2023-03-13T05:23:11.349Z,13.20
2023-03-13T05:25:22.180Z,13.20
2023-03-13T05:27:36.028Z,13.20
2023-03-13T05:29:48.349Z,13.30
2023-03-13T05:32:07.784Z,13.30
2023-03-13T05:34:22.190Z,13.30
2023-03-13T05:36:39.376Z,13.40
2023-03-13T05:38:52.321Z,13.30
2023-03-13T05:41:15.766Z,13.30
2023-03-13T05:43:36.326Z,13.30
2023-03-13T05:45:43.229Z,13.40
2023-03-13T05:48:05.580Z,13.30
2023-03-13T05:50:26.249Z,13.40
2023-03-13T05:52:54.768Z,13.40
2023-03-13T05:55:17.464Z,13.40
2023-03-13T05:57:50.719Z,13.50
2023-03-13T06:00:19.199Z,13.50
2023-03-13T06:02:45.910Z,13.50
2023-03-13T06:04:53.281Z,13.40
2023-03-13T06:06:57.993Z,13.50
2023-03-13T06:09:02.205Z,13.50
2023-03-13T06:11:06.627Z,13.50
2023-03-13T06:13:19.457Z,13.50
2023-03-13T06:15:23.550Z,13.50
2023-03-13T06:17:39.099Z,13.50
2023-03-13T06:19:40.788Z,13.60
2023-03-13T06:21:42.555Z,13.60
2023-03-13T06:23:46.943Z,13.60
2023-03-13T06:25:48.981Z,13.60
2023-03-13T06:27:51.062Z,13.60
2023-03-13T06:29:52.757Z,13.60
2023-03-13T06:31:54.613Z,13.60
2023-03-13T06:33:59.084Z,13.70
2023-03-13T06:36:01.725Z,13.60
2023-03-13T06:38:03.487Z,13.60
2023-03-13T06:40:07.659Z,13.60
2023-03-13T06:42:15.022Z,13.70
2023-03-13T06:44:16.662Z,13.60
2023-03-13T06:46:20.928Z,13.70
2023-03-13T06:48:23.419Z,13.70
2023-03-13T06:50:25.149Z,13.70
2023-03-13T06:52:42.838Z,13.70
2023-03-13T06:54:45.604Z,13.80
2023-03-13T06:56:49.871Z,13.80
2023-03-13T06:58:51.905Z,13.90
2023-03-13T07:00:56.592Z,13.80
2023-03-13T07:03:00.664Z,13.90
2023-03-13T07:05:05.761Z,13.90
2023-03-13T07:07:07.680Z,13.90
2023-03-13T07:09:11.680Z,13.90
2023-03-13T07:11:14.660Z,13.90
2023-03-13T07:13:17.768Z,14.00
2023-03-13T07:15:22.477Z,14.00
2023-03-13T07:17:24.186Z,14.00
2023-03-13T07:19:29.239Z,13.90
2023-03-13T07:21:30.879Z,13.90
2023-03-13T07:23:34.152Z,13.90
2023-03-13T07:25:35.857Z,14.00
2023-03-13T07:27:38.458Z,13.90
2023-03-13T07:29:40.145Z,13.90
2023-03-13T07:31:43.410Z,13.90
2023-03-13T07:33:45.836Z,14.00
2023-03-13T07:35:51.033Z,14.00
2023-03-13T07:37:52.901Z,14.00
2023-03-13T07:39:55.801Z,14.00
2023-03-13T07:41:57.648Z,14.00
2023-03-13T07:43:59.388Z,14.00
2023-03-13T07:46:03.733Z,14.00
2023-03-13T07:48:05.797Z,14.10
2023-03-13T07:50:08.435Z,14.10
2023-03-13T07:52:10.475Z,14.10
2023-03-13T07:54:12.211Z,14.10
2023-03-13T07:56:18.150Z,14.10
2023-03-13T07:58:22.426Z,14.20
2023-03-13T08:00:24.228Z,14.20
2023-03-13T08:02:25.903Z,14.20
2023-03-13T08:04:27.800Z,14.20
2023-03-13T08:06:33.874Z,14.20
2023-03-13T08:08:37.319Z,14.20
2023-03-13T08:10:39.118Z,14.20
2023-03-13T08:12:40.963Z,14.20
2023-03-13T08:14:42.689Z,14.20
2023-03-13T08:16:44.544Z,14.20
2023-03-13T08:18:51.965Z,14.20
2023-03-13T08:20:53.615Z,14.20
2023-03-13T08:22:57.029Z,14.20
2023-03-13T08:24:58.690Z,14.20
2023-03-13T08:27:00.346Z,14.20
2023-03-13T08:29:08.488Z,14.20
2023-03-13T08:31:18.654Z,14.20
2023-03-13T08:33:21.978Z,14.20
2023-03-13T08:35:24.981Z,14.20
2023-03-13T08:37:26.799Z,14.20
2023-03-13T08:39:28.483Z,14.10
2023-03-13T08:41:33.761Z,14.10
2023-03-13T08:43:38.962Z,14.10
2023-03-13T08:45:40.694Z,14.10
2023-03-13T08:47:42.462Z,14.10
2023-03-13T08:49:44.774Z,14.10
2023-03-13T08:51:46.476Z,14.30
2023-03-13T08:53:49.232Z,14.10
2023-03-13T08:55:54.806Z,14.10
2023-03-13T08:57:56.516Z,14.10
2023-03-13T08:59:58.167Z,14.00
2023-03-13T09:01:59.922Z,14.00
2023-03-13T09:04:04.240Z,14.10
2023-03-13T09:06:08.401Z,14.10
2023-03-13T09:08:12.296Z,14.10
2023-03-13T09:10:16.117Z,14.10
2023-03-13T09:12:30.056Z,14.10
2023-03-13T09:14:32.397Z,14.00
2023-03-13T09:16:36.348Z,14.10
2023-03-13T09:18:41.368Z,14.10
2023-03-13T09:20:45.736Z,14.10
2023-03-13T09:22:51.267Z,14.10
2023-03-13T09:24:52.911Z,14.10
2023-03-13T09:27:01.483Z,14.00
2023-03-13T09:29:03.508Z,14.10
2023-03-13T09:31:10.466Z,14.10
2023-03-13T09:33:14.668Z,14.20
2023-03-13T09:35:19.038Z,14.10
2023-03-13T09:37:20.709Z,14.20
2023-03-13T09:39:26.939Z,14.10
2023-03-13T09:41:58.840Z,14.20
2023-03-13T09:44:13.008Z,14.20
2023-03-13T09:46:29.619Z,14.20
2023-03-13T09:48:34.259Z,14.20
2023-03-13T09:50:42.697Z,14.20
2023-03-13T09:52:44.346Z,14.20
2023-03-13T09:54:57.011Z,14.30
2023-03-13T09:57:14.328Z,14.30
2023-03-13T09:59:48.328Z,14.30
2023-03-13T10:01:51.374Z,14.40
2023-03-13T10:04:19.589Z,14.40
2023-03-13T10:06:24.625Z,14.40
2023-03-13T10:08:31.484Z,14.40
2023-03-13T10:10:43.039Z,14.40
2023-03-13T10:12:47.849Z,14.50
2023-03-13T10:15:15.303Z,14.50
2023-03-13T10:17:38.923Z,14.40
2023-03-13T10:19:43.354Z,14.40
2023-03-13T10:21:51.432Z,14.50
2023-03-13T10:24:05.062Z,14.50
2023-03-13T10:26:26.155Z,14.50
2023-03-13T10:28:32.298Z,14.50
2023-03-13T10:30:39.507Z,14.50
2023-03-13T10:32:41.818Z,14.50
2023-03-13T10:35:14.416Z,14.50
2023-03-13T10:37:20.348Z,14.60
2023-03-13T10:39:29.117Z,14.50
2023-03-13T10:41:35.374Z,14.60
2023-03-13T10:43:52.249Z,14.60
2023-03-13T10:45:54.056Z,14.60
2023-03-13T10:48:03.774Z,14.70
2023-03-13T10:50:14.326Z,14.70
2023-03-13T10:52:33.896Z,14.70
2023-03-13T10:54:39.368Z,14.90
2023-03-13T10:56:41.010Z,14.90
2023-03-13T10:58:51.491Z,14.90
2023-03-13T11:00:56.340Z,15.00
2023-03-13T11:02:58.190Z,15.00
2023-03-13T11:04:59.992Z,15.00
2023-03-13T11:07:35.361Z,15.10
2023-03-13T11:09:39.900Z,15.10
2023-03-13T11:11:54.652Z,15.10
2023-03-13T11:14:09.689Z,15.10
2023-03-13T11:16:29.260Z,15.10
2023-03-13T11:19:03.179Z,15.20
2023-03-13T11:21:17.777Z,15.20
2023-03-13T11:23:40.790Z,15.30
2023-03-13T11:26:01.688Z,15.30
2023-03-13T11:28:42.228Z,15.30
2023-03-13T11:30:59.952Z,15.30
2023-03-13T11:33:13.915Z,15.30
2023-03-13T11:35:38.637Z,15.40
2023-03-13T11:37:43.374Z,15.40
2023-03-13T11:40:09.460Z,15.40
2023-03-13T11:42:22.802Z,15.30
2023-03-13T11:44:33.035Z,15.30
2023-03-13T11:46:58.580Z,15.40
2023-03-13T11:49:21.667Z,15.40
2023-03-13T11:51:52.918Z,15.30
2023-03-13T11:54:16.445Z,15.40
2023-03-13T11:56:23.492Z,15.40
2023-03-13T11:59:03.433Z,15.30
2023-03-13T12:01:23.292Z,15.40
2023-03-13T12:03:55.911Z,15.40
2023-03-13T12:06:00.449Z,15.40
2023-03-13T12:08:17.864Z,15.30
2023-03-13T12:10:29.878Z,15.30
2023-03-13T12:12:47.894Z,15.30
2023-03-13T12:15:10.411Z,15.30
2023-03-13T12:17:17.273Z,15.30
2023-03-13T12:19:43.873Z,15.20
2023-03-13T12:21:53.673Z,15.20
2023-03-13T12:24:22.800Z,15.20
2023-03-13T12:26:51.212Z,15.20
2023-03-13T12:29:12.389Z,15.20
2023-03-13T12:31:28.453Z,15.20
2023-03-13T12:33:38.193Z,15.20
2023-03-13T12:35:47.102Z,15.10
2023-03-13T12:38:02.224Z,15.20
2023-03-13T12:40:23.653Z,15.20
2023-03-13T12:42:50.100Z,15.10
2023-03-13T12:44:51.963Z,15.20
2023-03-13T12:47:20.947Z,15.20
2023-03-13T12:49:43.651Z,15.10
2023-03-13T12:51:54.849Z,15.20
2023-03-13T12:54:08.774Z,15.30
2023-03-13T12:56:33.546Z,15.40
2023-03-13T12:58:51.724Z,15.40
2023-03-13T13:00:55.395Z,15.40
2023-03-13T13:03:31.595Z,15.40
2023-03-13T13:05:33.380Z,15.50
2023-03-13T13:07:38.632Z,15.50
2023-03-13T13:10:02.198Z,15.40
2023-03-13T13:12:23.996Z,15.50
2023-03-13T13:14:28.484Z,15.40
2023-03-13T13:16:31.562Z,15.50
2023-03-13T13:18:38.810Z,15.40
2023-03-13T13:21:02.735Z,15.40
2023-03-13T13:23:22.461Z,15.40
2023-03-13T13:25:24.192Z,15.40
2023-03-13T13:27:47.084Z,15.40
2023-03-13T13:29:54.844Z,15.40
2023-03-13T13:32:00.178Z,15.30
2023-03-13T13:34:02.005Z,15.40
2023-03-13T13:36:09.565Z,15.40
2023-03-13T13:38:27.430Z,15.40
2023-03-13T13:40:32.176Z,15.40
2023-03-13T13:42:51.266Z,15.30
2023-03-13T13:45:02.670Z,15.40
2023-03-13T13:47:07.356Z,15.40
2023-03-13T13:49:18.497Z,15.40
2023-03-13T13:51:23.776Z,15.50
2023-03-13T13:53:37.978Z,15.50
2023-03-13T13:55:45.316Z,15.50
2023-03-13T13:57:49.426Z,15.60
2023-03-13T14:00:24.927Z,15.60
2023-03-13T14:02:34.632Z,15.70
2023-03-13T14:04:50.320Z,15.70
2023-03-13T14:06:53.437Z,15.70
2023-03-13T14:09:02.067Z,15.70
2023-03-13T14:11:39.404Z,15.70
2023-03-13T14:13:41.710Z,15.70
2023-03-13T14:16:08.025Z,15.80
2023-03-13T14:18:14.819Z,15.80
2023-03-13T14:20:21.742Z,15.70
2023-03-13T14:22:25.936Z,15.70
2023-03-13T14:24:27.854Z,15.70
2023-03-13T14:26:30.342Z,15.70
2023-03-13T14:28:32.166Z,15.70
2023-03-13T14:30:33.906Z,15.70
2023-03-13T14:32:35.943Z,15.70
2023-03-13T14:34:37.709Z,15.70
2023-03-13T14:36:48.098Z,15.80
2023-03-13T14:38:57.910Z,15.80
2023-03-13T14:41:00.799Z,15.80
2023-03-13T14:43:04.132Z,15.90
2023-03-13T14:45:21.051Z,15.90
2023-03-13T14:47:31.079Z,15.90
2023-03-13T14:49:34.416Z,16.00
2023-03-13T14:51:39.701Z,16.00
2023-03-13T14:53:52.940Z,16.00
2023-03-13T14:56:21.497Z,16.10
2023-03-13T14:58:28.693Z,16.20
2023-03-13T15:00:36.573Z,16.20
2023-03-13T15:02:38.714Z,16.20
2023-03-13T15:04:56.175Z,16.30
2023-03-13T15:07:05.106Z,16.30
2023-03-13T15:09:20.527Z,16.40
2023-03-13T15:11:35.692Z,16.40
2023-03-13T15:13:37.615Z,16.40
2023-03-13T15:15:39.362Z,16.40
2023-03-13T15:17:43.592Z,16.40
2023-03-13T15:19:53.421Z,16.40
2023-03-13T15:21:55.384Z,16.40
2023-03-13T15:24:01.267Z,16.40
2023-03-13T15:26:03.146Z,16.50
2023-03-13T15:28:14.376Z,16.50
2023-03-13T15:30:17.754Z,16.60
2023-03-13T15:32:29.410Z,16.60
2023-03-13T15:34:33.911Z,16.70
2023-03-13T15:36:37.723Z,16.70
2023-03-13T15:38:39.794Z,16.80
2023-03-13T15:40:41.874Z,16.80
2023-03-13T15:42:43.855Z,16.80
2023-03-13T15:44:45.745Z,16.80
2023-03-13T15:46:48.059Z,16.90
2023-03-13T15:48:51.439Z,17.00
2023-03-13T15:50:59.556Z,17.00
2023-03-13T15:53:06.443Z,17.10
2023-03-13T15:55:10.100Z,17.10
2023-03-13T15:57:27.409Z,17.10
2023-03-13T15:59:31.627Z,17.20
2023-03-13T16:01:34.100Z,17.20
2023-03-13T16:03:35.873Z,17.20
2023-03-13T16:05:37.730Z,17.20
2023-03-13T16:07:41.860Z,17.10
2023-03-13T16:09:44.239Z,17.10
2023-03-13T16:11:48.386Z,17.10
2023-03-13T16:13:50.181Z,17.00
2023-03-13T16:15:51.905Z,16.90
2023-03-13T16:17:53.586Z,16.80
2023-03-13T16:19:59.692Z,16.80
2023-03-13T16:22:01.391Z,16.80
2023-03-13T16:24:03.228Z,16.70
2023-03-13T16:26:12.568Z,16.70
2023-03-13T16:28:15.099Z,16.60
2023-03-13T16:30:23.260Z,16.50
2023-03-13T16:32:25.673Z,16.50
2023-03-13T16:34:27.456Z,16.40
2023-03-13T16:36:31.387Z,16.40
2023-03-13T16:38:33.189Z,16.30
2023-03-13T16:40:37.989Z,16.30
2023-03-13T16:42:39.648Z,16.30
2023-03-13T16:44:41.498Z,16.30
2023-03-13T16:47:02.746Z,16.30
2023-03-13T16:49:12.603Z,16.20
2023-03-13T16:51:28.223Z,16.10
2023-03-13T16:53:29.934Z,16.10
2023-03-13T16:55:36.380Z,16.00
2023-03-13T16:57:38.616Z,16.00
2023-03-13T16:59:40.371Z,16.00
2023-03-13T17:01:42.314Z,16.00
2023-03-13T17:03:44.707Z,16.00
2023-03-13T17:05:46.399Z,15.90
2023-03-13T17:07:50.146Z,15.90
2023-03-13T17:09:52.315Z,15.90
2023-03-13T17:11:54.016Z,15.90
2023-03-13T17:13:56.037Z,15.80
2023-03-13T17:16:00.887Z,15.80
2023-03-13T17:18:02.730Z,15.70
2023-03-13T17:20:05.745Z,15.70
2023-03-13T17:22:07.563Z,15.60
2023-03-13T17:24:09.262Z,15.60
2023-03-13T17:26:19.777Z,15.60
2023-03-13T17:28:25.647Z,15.50
2023-03-13T17:30:30.473Z,15.50
2023-03-13T17:32:32.205Z,15.40
2023-03-13T17:34:33.985Z,15.40
2023-03-13T17:36:36.393Z,15.30
2023-03-13T17:38:39.353Z,15.30
2023-03-13T17:40:41.727Z,15.20
2023-03-13T17:42:45.759Z,15.20
2023-03-13T17:44:47.506Z,15.10
2023-03-13T17:46:50.980Z,15.10
2023-03-13T17:48:54.097Z,15.10
2023-03-13T17:50:55.801Z,15.10
2023-03-13T17:52:57.545Z,15.00
2023-03-13T17:54:59.212Z,15.00
2023-03-13T17:57:01.009Z,14.90
2023-03-13T17:59:04.303Z,14.90
2023-03-13T18:01:06.505Z,14.80
2023-03-13T18:03:10.524Z,14.80
2023-03-13T18:05:12.286Z,14.80
2023-03-13T18:07:24.803Z,14.70
2023-03-13T18:09:26.490Z,14.70
2023-03-13T18:11:28.695Z,14.60
2023-03-13T18:13:30.508Z,14.60
2023-03-13T18:15:34.382Z,14.50
2023-03-13T18:17:36.266Z,14.60
2023-03-13T18:19:42.921Z,14.60
2023-03-13T18:21:46.119Z,14.50
2023-03-13T18:23:49.053Z,14.40
2023-03-13T18:25:50.761Z,14.40
2023-03-13T18:27:52.501Z,14.40
2023-03-13T18:29:54.253Z,14.40
2023-03-13T18:32:00.237Z,14.30
2023-03-13T18:34:05.386Z,14.30
2023-03-13T18:36:20.449Z,14.20
2023-03-13T18:38:25.990Z,14.20
2023-03-13T18:40:28.833Z,14.20
2023-03-13T18:42:30.555Z,14.20
2023-03-13T18:44:32.274Z,14.20
2023-03-13T18:46:34.707Z,14.10
2023-03-13T18:48:36.465Z,14.10
2023-03-13T18:50:38.357Z,14.00
2023-03-13T18:52:40.085Z,14.00
2023-03-13T18:54:44.925Z,14.00
2023-03-13T18:56:48.107Z,13.90
2023-03-13T18:58:51.908Z,13.90
2023-03-13T19:00:54.926Z,13.90
2023-03-13T19:02:56.803Z,13.90
2023-03-13T19:04:58.832Z,13.90
2023-03-13T19:07:00.514Z,13.80
2023-03-13T19:09:41.463Z,13.80
2023-03-13T19:11:39.537Z,13.80
2023-03-13T19:13:41.318Z,13.80
2023-03-13T19:15:45.710Z,13.70
2023-03-13T19:17:47.749Z,13.70
2023-03-13T19:19:49.454Z,13.70
2023-03-13T19:21:52.991Z,13.70
2023-03-13T19:23:57.004Z,13.70
2023-03-13T19:25:58.713Z,13.60
2023-03-13T19:28:00.619Z,13.60
2023-03-13T19:30:02.339Z,13.50
2023-03-13T19:32:09.480Z,13.50
2023-03-13T19:34:14.274Z,13.50
2023-03-13T19:36:20.281Z,13.50
2023-03-13T19:38:22.001Z,13.50
2023-03-13T19:40:26.538Z,13.40
2023-03-13T19:42:28.568Z,13.40
2023-03-13T19:44:32.479Z,13.40
2023-03-13T19:46:37.609Z,13.30
2023-03-13T19:48:39.443Z,13.30
2023-03-13T19:50:41.146Z,13.40
2023-03-13T19:52:45.432Z,13.40
2023-03-13T19:54:47.153Z,13.40
2023-03-13T19:56:49.977Z,13.40
2023-03-13T19:58:56.759Z,13.40
2023-03-13T20:01:00.759Z,13.40
2023-03-13T20:03:09.867Z,13.40
2023-03-13T20:05:11.590Z,13.40
2023-03-13T20:07:14.039Z,13.40
2023-03-13T20:09:20.430Z,13.40
2023-03-13T20:11:23.049Z,13.30
2023-03-13T20:13:24.906Z,13.30
2023-03-13T20:15:27.163Z,13.30
2023-03-13T20:17:29.241Z,13.20
2023-03-13T20:19:31.024Z,13.20
2023-03-13T20:21:36.602Z,13.20
2023-03-13T20:23:38.363Z,13.20
2023-03-13T20:25:42.281Z,13.10
2023-03-13T20:27:44.201Z,13.10
2023-03-13T20:29:48.819Z,13.10
2023-03-13T20:31:52.747Z,13.10
2023-03-13T20:33:58.872Z,13.00
2023-03-13T20:36:03.427Z,13.10
2023-03-13T20:38:06.129Z,13.00
2023-03-13T20:40:11.810Z,13.00
2023-03-13T20:42:14.378Z,13.00
2023-03-13T20:44:18.661Z,13.00
2023-03-13T20:46:21.160Z,13.00
2023-03-13T20:48:26.100Z,13.00
2023-03-13T20:50:27.950Z,13.00
2023-03-13T20:52:35.550Z,13.00
2023-03-13T20:54:38.666Z,13.00
2023-03-13T20:56:42.533Z,13.00
2023-03-13T20:58:44.295Z,13.00
2023-03-13T21:00:49.486Z,12.90
2023-03-13T21:02:51.304Z,13.00
2023-03-13T21:04:53.220Z,12.90
2023-03-13T21:06:57.687Z,13.00
2023-03-13T21:09:01.870Z,12.90
2023-03-13T21:11:05.133Z,12.90
2023-03-13T21:13:08.109Z,12.90
2023-03-13T21:15:11.381Z,12.80
2023-03-13T21:17:13.493Z,12.90
2023-03-13T21:19:18.070Z,12.80
2023-03-13T21:21:24.860Z,12.80
2023-03-13T21:23:26.580Z,12.80
2023-03-13T21:25:28.343Z,12.80
2023-03-13T21:27:34.367Z,12.80
2023-03-13T21:29:44.035Z,12.80
2023-03-13T21:31:48.902Z,12.80
2023-03-13T21:33:53.790Z,12.80
2023-03-13T21:35:55.640Z,12.80
2023-03-13T21:37:57.355Z,12.80
2023-03-13T21:40:01.977Z,12.80
2023-03-13T21:42:04.275Z,12.80
2023-03-13T21:44:08.366Z,12.70
2023-03-13T21:46:15.472Z,12.70
2023-03-13T21:48:20.001Z,12.80
2023-03-13T21:50:23.607Z,12.80
2023-03-13T21:52:25.411Z,12.80
2023-03-13T21:54:27.208Z,12.80
2023-03-13T21:56:28.946Z,12.70
2023-03-13T21:58:30.837Z,12.80
2023-03-13T22:00:33.962Z,12.70
2023-03-13T22:02:36.445Z,12.70
2023-03-13T22:04:40.164Z,12.70
2023-03-13T22:06:44.766Z,12.70
2023-03-13T22:08:48.692Z,12.70
2023-03-13T22:10:52.410Z,12.70
2023-03-13T22:12:54.126Z,12.60
2023-03-13T22:14:58.434Z,12.60
2023-03-13T22:17:00.165Z,12.60
2023-03-13T22:19:01.995Z,12.60
2023-03-13T22:21:04.168Z,12.60
2023-03-13T22:23:07.095Z,12.50
2023-03-13T22:25:09.237Z,12.50
2023-03-13T22:27:15.600Z,12.50
2023-03-13T22:29:17.384Z,12.60
2023-03-13T22:31:21.601Z,12.60
2023-03-13T22:33:23.486Z,12.60
2023-03-13T22:35:25.157Z,12.70
2023-03-13T22:37:27.246Z,12.60
2023-03-13T22:39:28.976Z,12.60
2023-03-13T22:41:30.696Z,12.60
2023-03-13T22:43:34.509Z,12.70
2023-03-13T22:45:36.349Z,12.70
2023-03-13T22:47:38.098Z,12.70
2023-03-13T22:49:42.044Z,12.70
2023-03-13T22:51:43.786Z,12.70
2023-03-13T22:53:45.563Z,12.70
2023-03-13T22:55:48.770Z,12.70
2023-03-13T22:57:50.587Z,12.70
2023-03-13T22:59:53.792Z,12.60
2023-03-13T23:01:57.808Z,12.60
2023-03-13T23:03:59.862Z,12.60
2023-03-13T23:06:05.689Z,12.60
2023-03-13T23:08:07.475Z,12.60
2023-03-13T23:10:10.649Z,12.50
2023-03-13T23:12:12.323Z,12.50
2023-03-13T23:14:14.045Z,12.50
2023-03-13T23:16:16.002Z,12.40
2023-03-13T23:18:17.721Z,12.40
2023-03-13T23:20:19.633Z,12.40
2023-03-13T23:22:21.881Z,12.40
2023-03-13T23:24:23.771Z,12.30
2023-03-13T23:26:27.765Z,12.40
2023-03-13T23:28:29.692Z,12.30
2023-03-13T23:30:31.489Z,12.30
2023-03-13T23:32:40.899Z,12.30
2023-03-13T23:34:42.631Z,12.20
2023-03-13T23:36:44.389Z,12.20
2023-03-13T23:38:49.866Z,12.20
2023-03-13T23:40:53.050Z,12.20
2023-03-13T23:42:54.753Z,12.20
2023-03-13T23:44:56.854Z,12.20
2023-03-13T23:47:03.128Z,12.20
2023-03-13T23:49:12.712Z,12.20
2023-03-13T23:51:14.504Z,12.20
2023-03-13T23:53:16.303Z,12.20
2023-03-13T23:55:18.025Z,12.20
2023-03-13T23:57:19.867Z,12.20
2023-03-13T23:59:21.593Z,12.20
